Islander — WDC8230 — position and weather

sailwx.info

Track history (hours):
 
Tides and Currents Weather Stations Pressure Air Temp Water Temp Dewpoint Dewpoint Depression Visibility Wind Speed Wind Dir Waves Ship Positions

Islander

Owner: HORNBLOWER CRUISES & EVENTS, San Francisco, CA. More information available from US FCC via Universal Licensing System and Coast Guard Vessel Documentation Center.

Last reported at 2018-Jun-23 17:30 UTC. Time now 2018-Jun-23 17:33 UTC.
Position N 37°48' W 122°24'.

Length 29 m; draft 1.7 m.

Type: Passenger vessel. MMSI: 367083670.

Date/timePositionNaut miles runAvg speedWind from/ knotsBaromVisibWave heightAir tempDewpointWater temp
2018-Jun-23 17:30N 37°48' W 122°24'0 0.0
2018-Jun-23 16:59N 37°48' W 122°24'0 0.3
2018-Jun-23 16:30N 37°49' W 122°24'1 0.0
2018-Jun-22 23:34N 37°48' W 122°24'0 0.1
2018-Jun-22 23:31N 37°48' W 122°24'1 1.4
2018-Jun-22 23:01N 37°48' W 122°24'2 4.7
2018-Jun-22 22:30N 37°49' W 122°27'1 2.8
2018-Jun-22 22:01N 37°50' W 122°26'2 3.2
2018-Jun-22 21:28N 37°48' W 122°24'0 0.0
2018-Jun-22 20:59N 37°48' W 122°24'1 3.0
2018-Jun-22 20:30N 37°49' W 122°26'1 2.0
2018-Jun-22 20:01N 37°50' W 122°25'1 2.8
2018-Jun-22 19:30N 37°48' W 122°24'2 4.3
2018-Jun-22 19:01N 37°49' W 122°27'1 3.0
2018-Jun-22 18:31N 37°50' W 122°25'2 3.4
2018-Jun-22 18:01N 37°48' W 122°24'0 0.0
2018-Jun-22 17:31N 37°48' W 122°24'0 0.0
2018-Jun-22 17:00N 37°48' W 122°24'0 0.9
2018-Jun-22 16:30N 37°49' W 122°24'1 0.0
2018-Jun-21 19:03N 37°48' W 122°24'0 0.1
2018-Jun-21 19:00N 37°48' W 122°24'1 1.3
2018-Jun-21 18:29N 37°48' W 122°24'1 1.8
2018-Jun-21 18:01N 37°49' W 122°25'1 1.7
2018-Jun-21 17:31N 37°48' W 122°24'0 0.7
2018-Jun-21 17:00N 37°49' W 122°24'0 0.7
2018-Jun-21 16:30N 37°48' W 122°24'1 2.9
2018-Jun-21 16:01N 37°50' W 122°25'1 2.8
2018-Jun-21 15:29N 37°48' W 122°24'0 0.0
2018-Jun-21 15:00N 37°48' W 122°24'1 0.0
2018-Jun-19 23:17N 37°48' W 122°24'1 2.7
2018-Jun-19 23:01N 37°48' W 122°24'0 0.1
2018-Jun-19 22:29N 37°48' W 122°24'0 0.0
2018-Jun-19 21:53N 37°48' W 122°24'0 0.0
2018-Jun-19 21:29N 37°48' W 122°24'0 0.0
2018-Jun-19 21:00N 37°48' W 122°24'0 0.0
2018-Jun-19 20:26N 37°48' W 122°24'0 0.0
2018-Jun-19 20:00N 37°48' W 122°24'0 0.0
2018-Jun-19 19:30N 37°48' W 122°24'0 0.0
2018-Jun-19 19:01N 37°48' W 122°24'0 0.0
2018-Jun-19 18:25N 37°48' W 122°24'0 0.0
2018-Jun-19 17:59N 37°48' W 122°24'0 0.0
2018-Jun-19 17:13N 37°48' W 122°24'0 0.0
2018-Jun-19 16:59N 37°48' W 122°24'0 0.0
2018-Jun-19 16:28N 37°48' W 122°24'0 0.0
2018-Jun-19 15:44N 37°48' W 122°24'0 0.0
2018-Jun-19 15:28N 37°48' W 122°24'1 0.0
2018-Jun-18 23:32N 37°48' W 122°24'0 0.2
2018-Jun-18 23:30N 37°48' W 122°24'1 1.4
2018-Jun-18 23:00N 37°48' W 122°24'2 4.9
2018-Jun-18 22:30N 37°49' W 122°27'2 3.2
2018-Jun-18 22:01N 37°50' W 122°25'2 3.2
2018-Jun-18 21:29N 37°48' W 122°24'0 0.0
2018-Jun-18 20:59N 37°48' W 122°24'2 4.0
2018-Jun-18 20:30N 37°49' W 122°27'1 2.5
2018-Jun-18 20:00N 37°50' W 122°25'2 3.4
2018-Jun-18 19:30N 37°48' W 122°24'2 3.5
2018-Jun-18 19:00N 37°49' W 122°26'1 2.3
2018-Jun-18 18:30N 37°50' W 122°25'2 3.1
2018-Jun-18 18:00N 37°48' W 122°24'0 0.0
2018-Jun-18 17:30N 37°48' W 122°24'0 0.0
2018-Jun-18 17:00N 37°48' W 122°24'1 1.3
2018-Jun-18 16:30N 37°48' W 122°24'0 0.0
2018-Jun-17 23:31N 37°48' W 122°24'0 0.0
2018-Jun-17 23:30N 37°48' W 122°24'1 1.4
2018-Jun-17 23:01N 37°48' W 122°24'3 6.0
2018-Jun-17 22:30N 37°49' W 122°28'2 3.7
2018-Jun-17 22:00N 37°50' W 122°26'2 3.2
2018-Jun-17 21:30N 37°48' W 122°24'0 0.0
2018-Jun-17 21:00N 37°48' W 122°24'3 6.2
2018-Jun-17 20:30N 37°49' W 122°28'2 3.8
2018-Jun-17 20:00N 37°50' W 122°26'2 3.3
2018-Jun-17 19:30N 37°48' W 122°24'2 4.0
2018-Jun-17 19:00N 37°49' W 122°27'1 2.7
2018-Jun-17 18:30N 37°50' W 122°25'2 3.0
2018-Jun-17 17:59N 37°48' W 122°24'0 0.0
2018-Jun-17 17:29N 37°48' W 122°24'1 1.4
2018-Jun-17 17:00N 37°48' W 122°24'0 0.0
2018-Jun-16 23:36N 37°48' W 122°24'0 0.0
2018-Jun-16 23:30N 37°48' W 122°24'1 1.3
2018-Jun-16 22:58N 37°48' W 122°24'3 5.7
2018-Jun-16 22:30N 37°49' W 122°28'2 3.9
2018-Jun-16 22:00N 37°50' W 122°25'2 3.3
2018-Jun-16 21:30N 37°48' W 122°24'0 0.0
2018-Jun-16 20:59N 37°48' W 122°24'3 6.0
2018-Jun-16 20:30N 37°49' W 122°28'2 4.5
2018-Jun-16 20:00N 37°50' W 122°25'2 3.1
2018-Jun-16 19:30N 37°48' W 122°24'2 5.1
2018-Jun-16 19:00N 37°49' W 122°27'2 3.8
2018-Jun-16 18:30N 37°50' W 122°25'2 3.0
2018-Jun-16 18:00N 37°48' W 122°24'0 0.0
2018-Jun-16 17:24N 37°48' W 122°24'0 0.0
2018-Jun-16 17:00N 37°48' W 122°24'0 0.4
2018-Jun-16 16:30N 37°48' W 122°24'1 0.0
2018-Jun-15 23:37N 37°48' W 122°24'0 0.0
2018-Jun-15 23:30N 37°48' W 122°24'1 1.4
2018-Jun-15 23:00N 37°48' W 122°24'2 4.2
2018-Jun-15 22:30N 37°49' W 122°27'1 2.7
2018-Jun-15 22:00N 37°50' W 122°25'2 3.1
2018-Jun-15 21:30N 37°48' W 122°24'0 0.0
2018-Jun-15 21:00N 37°48' W 122°24'3 6.1
2018-Jun-15 20:30N 37°49' W 122°28'2 4.5
2018-Jun-15 20:00N 37°50' W 122°25'2 3.1
2018-Jun-15 19:30N 37°48' W 122°24'3 5.4
2018-Jun-15 19:00N 37°49' W 122°28'2 3.9
2018-Jun-15 18:30N 37°50' W 122°25'2 2.4
2018-Jun-15 17:50N 37°48' W 122°24'0 0.0
2018-Jun-15 17:15N 37°48' W 122°24'0 0.0
2018-Jun-15 17:00N 37°48' W 122°24'1 1.4
2018-Jun-15 16:30N 37°48' W 122°24'0 0.0
2018-Jun-14 23:46N 37°48' W 122°24'0 0.0
2018-Jun-14 23:30N 37°48' W 122°24'1 1.4
2018-Jun-14 22:59N 37°48' W 122°24'2 4.0
2018-Jun-14 22:30N 37°49' W 122°27'1 2.4
2018-Jun-14 22:01N 37°50' W 122°26'2 3.2
2018-Jun-14 21:29N 37°48' W 122°24'0 0.0
2018-Jun-14 20:58N 37°48' W 122°24'2 5.0
2018-Jun-14 20:30N 37°49' W 122°27'2 3.2
2018-Jun-14 20:00N 37°50' W 122°25'2 3.1
2018-Jun-14 19:30N 37°48' W 122°24'2 4.6
2018-Jun-14 19:00N 37°49' W 122°27'2 3.2
2018-Jun-14 18:31N 37°50' W 122°25'2 3.1
2018-Jun-14 18:00N 37°48' W 122°24'0 0.0
2018-Jun-14 17:11N 37°48' W 122°24'0 0.0
2018-Jun-14 16:57N 37°48' W 122°24'  
Track history (hours):
 
Tides and Currents Weather Stations Pressure Air Temp Water Temp Dewpoint Dewpoint Depression Visibility Wind Speed Wind Dir Waves Ship Positions

Islander

Owner: HORNBLOWER CRUISES & EVENTS, San Francisco, CA. More information available from US FCC via Universal Licensing System and Coast Guard Vessel Documentation Center.

Last reported at 2018-Jun-23 17:30 UTC. Time now 2018-Jun-23 17:33 UTC.
Position N 37°48' W 122°24'.

Length 29 m; draft 1.7 m.

Type: Passenger vessel. MMSI: 367083670.

Date/timePositionNaut miles runAvg speedWind from/ knotsBaromVisibWave heightAir tempDewpointWater temp
2018-Jun-23 17:30N 37°48' W 122°24'0 0.0
2018-Jun-23 16:59N 37°48' W 122°24'0 0.3
2018-Jun-23 16:30N 37°49' W 122°24'1 0.0
2018-Jun-22 23:34N 37°48' W 122°24'0 0.1
2018-Jun-22 23:31N 37°48' W 122°24'1 1.4
2018-Jun-22 23:01N 37°48' W 122°24'2 4.7
2018-Jun-22 22:30N 37°49' W 122°27'1 2.8
2018-Jun-22 22:01N 37°50' W 122°26'2 3.2
2018-Jun-22 21:28N 37°48' W 122°24'0 0.0
2018-Jun-22 20:59N 37°48' W 122°24'1 3.0
2018-Jun-22 20:30N 37°49' W 122°26'1 2.0
2018-Jun-22 20:01N 37°50' W 122°25'1 2.8
2018-Jun-22 19:30N 37°48' W 122°24'2 4.3
2018-Jun-22 19:01N 37°49' W 122°27'1 3.0
2018-Jun-22 18:31N 37°50' W 122°25'2 3.4
2018-Jun-22 18:01N 37°48' W 122°24'0 0.0
2018-Jun-22 17:31N 37°48' W 122°24'0 0.0
2018-Jun-22 17:00N 37°48' W 122°24'0 0.9
2018-Jun-22 16:30N 37°49' W 122°24'1 0.0
2018-Jun-21 19:03N 37°48' W 122°24'0 0.1
2018-Jun-21 19:00N 37°48' W 122°24'1 1.3
2018-Jun-21 18:29N 37°48' W 122°24'1 1.8
2018-Jun-21 18:01N 37°49' W 122°25'1 1.7
2018-Jun-21 17:31N 37°48' W 122°24'0 0.7
2018-Jun-21 17:00N 37°49' W 122°24'0 0.7
2018-Jun-21 16:30N 37°48' W 122°24'1 2.9
2018-Jun-21 16:01N 37°50' W 122°25'1 2.8
2018-Jun-21 15:29N 37°48' W 122°24'0 0.0
2018-Jun-21 15:00N 37°48' W 122°24'1 0.0
2018-Jun-19 23:17N 37°48' W 122°24'1 2.7
2018-Jun-19 23:01N 37°48' W 122°24'0 0.1
2018-Jun-19 22:29N 37°48' W 122°24'0 0.0
2018-Jun-19 21:53N 37°48' W 122°24'0 0.0
2018-Jun-19 21:29N 37°48' W 122°24'0 0.0
2018-Jun-19 21:00N 37°48' W 122°24'0 0.0
2018-Jun-19 20:26N 37°48' W 122°24'0 0.0
2018-Jun-19 20:00N 37°48' W 122°24'0 0.0
2018-Jun-19 19:30N 37°48' W 122°24'0 0.0
2018-Jun-19 19:01N 37°48' W 122°24'0 0.0
2018-Jun-19 18:25N 37°48' W 122°24'0 0.0
2018-Jun-19 17:59N 37°48' W 122°24'0 0.0
2018-Jun-19 17:13N 37°48' W 122°24'0 0.0
2018-Jun-19 16:59N 37°48' W 122°24'0 0.0
2018-Jun-19 16:28N 37°48' W 122°24'0 0.0
2018-Jun-19 15:44N 37°48' W 122°24'0 0.0
2018-Jun-19 15:28N 37°48' W 122°24'1 0.0
2018-Jun-18 23:32N 37°48' W 122°24'0 0.2
2018-Jun-18 23:30N 37°48' W 122°24'1 1.4
2018-Jun-18 23:00N 37°48' W 122°24'2 4.9
2018-Jun-18 22:30N 37°49' W 122°27'2 3.2
2018-Jun-18 22:01N 37°50' W 122°25'2 3.2
2018-Jun-18 21:29N 37°48' W 122°24'0 0.0
2018-Jun-18 20:59N 37°48' W 122°24'2 4.0
2018-Jun-18 20:30N 37°49' W 122°27'1 2.5
2018-Jun-18 20:00N 37°50' W 122°25'2 3.4
2018-Jun-18 19:30N 37°48' W 122°24'2 3.5
2018-Jun-18 19:00N 37°49' W 122°26'1 2.3
2018-Jun-18 18:30N 37°50' W 122°25'2 3.1
2018-Jun-18 18:00N 37°48' W 122°24'0 0.0
2018-Jun-18 17:30N 37°48' W 122°24'0 0.0
2018-Jun-18 17:00N 37°48' W 122°24'1 1.3
2018-Jun-18 16:30N 37°48' W 122°24'0 0.0
2018-Jun-17 23:31N 37°48' W 122°24'0 0.0
2018-Jun-17 23:30N 37°48' W 122°24'1 1.4
2018-Jun-17 23:01N 37°48' W 122°24'3 6.0
2018-Jun-17 22:30N 37°49' W 122°28'2 3.7
2018-Jun-17 22:00N 37°50' W 122°26'2 3.2
2018-Jun-17 21:30N 37°48' W 122°24'0 0.0
2018-Jun-17 21:00N 37°48' W 122°24'3 6.2
2018-Jun-17 20:30N 37°49' W 122°28'2 3.8
2018-Jun-17 20:00N 37°50' W 122°26'2 3.3
2018-Jun-17 19:30N 37°48' W 122°24'2 4.0
2018-Jun-17 19:00N 37°49' W 122°27'1 2.7
2018-Jun-17 18:30N 37°50' W 122°25'2 3.0
2018-Jun-17 17:59N 37°48' W 122°24'0 0.0
2018-Jun-17 17:29N 37°48' W 122°24'1 1.4
2018-Jun-17 17:00N 37°48' W 122°24'0 0.0
2018-Jun-16 23:36N 37°48' W 122°24'0 0.0
2018-Jun-16 23:30N 37°48' W 122°24'1 1.3
2018-Jun-16 22:58N 37°48' W 122°24'3 5.7
2018-Jun-16 22:30N 37°49' W 122°28'2 3.9
2018-Jun-16 22:00N 37°50' W 122°25'2 3.3
2018-Jun-16 21:30N 37°48' W 122°24'0 0.0
2018-Jun-16 20:59N 37°48' W 122°24'3 6.0
2018-Jun-16 20:30N 37°49' W 122°28'2 4.5
2018-Jun-16 20:00N 37°50' W 122°25'2 3.1
2018-Jun-16 19:30N 37°48' W 122°24'2 5.1
2018-Jun-16 19:00N 37°49' W 122°27'2 3.8
2018-Jun-16 18:30N 37°50' W 122°25'2 3.0
2018-Jun-16 18:00N 37°48' W 122°24'0 0.0
2018-Jun-16 17:24N 37°48' W 122°24'0 0.0
2018-Jun-16 17:00N 37°48' W 122°24'0 0.4
2018-Jun-16 16:30N 37°48' W 122°24'1 0.0
2018-Jun-15 23:37N 37°48' W 122°24'0 0.0
2018-Jun-15 23:30N 37°48' W 122°24'1 1.4
2018-Jun-15 23:00N 37°48' W 122°24'2 4.2
2018-Jun-15 22:30N 37°49' W 122°27'1 2.7
2018-Jun-15 22:00N 37°50' W 122°25'2 3.1
2018-Jun-15 21:30N 37°48' W 122°24'0 0.0
2018-Jun-15 21:00N 37°48' W 122°24'3 6.1
2018-Jun-15 20:30N 37°49' W 122°28'2 4.5
2018-Jun-15 20:00N 37°50' W 122°25'2 3.1
2018-Jun-15 19:30N 37°48' W 122°24'3 5.4
2018-Jun-15 19:00N 37°49' W 122°28'2 3.9
2018-Jun-15 18:30N 37°50' W 122°25'2 2.4
2018-Jun-15 17:50N 37°48' W 122°24'0 0.0
2018-Jun-15 17:15N 37°48' W 122°24'0 0.0
2018-Jun-15 17:00N 37°48' W 122°24'1 1.4
2018-Jun-15 16:30N 37°48' W 122°24'0 0.0
2018-Jun-14 23:46N 37°48' W 122°24'0 0.0
2018-Jun-14 23:30N 37°48' W 122°24'1 1.4
2018-Jun-14 22:59N 37°48' W 122°24'2 4.0
2018-Jun-14 22:30N 37°49' W 122°27'1 2.4
2018-Jun-14 22:01N 37°50' W 122°26'2 3.2
2018-Jun-14 21:29N 37°48' W 122°24'0 0.0
2018-Jun-14 20:58N 37°48' W 122°24'2 5.0
2018-Jun-14 20:30N 37°49' W 122°27'2 3.2
2018-Jun-14 20:00N 37°50' W 122°25'2 3.1
2018-Jun-14 19:30N 37°48' W 122°24'2 4.6
2018-Jun-14 19:00N 37°49' W 122°27'2 3.2
2018-Jun-14 18:31N 37°50' W 122°25'2 3.1
2018-Jun-14 18:00N 37°48' W 122°24'0 0.0
2018-Jun-14 17:11N 37°48' W 122°24'0 0.0
2018-Jun-14 16:57N 37°48' W 122°24'  

Dump ship's entire track history